Main page
METAR-TAF:

METAR-TAF

Airports :

Cherbourg – Maupertus Airport

Cherbourg, France

latitude: 49-39N, longitude: 001-28W, elevation: 138 m

Current weather observation

The report was made 39 minutes ago, at 00:00 UTC
Wind 3 kt from the North/Northeast
Temperature 11°C
Humidity 87%
Pressure 1020 hPa
Visibility: 6000 m
Broken clouds at a height of 2200 ft
Overcast at a height of 3600 ft

METAR: LFRC 240000Z AUTO 02003KT 6000 BKN022 OVC036 11/09 Q1020

Time: 02:39 (00:39 UTC)

Forecast

The report was made 10 hours and 39 minutes ago, at 14:00 UTC
Forecast valid from 23 at 15 UTC to 23 at 24 UTC
Wind 10 kt from the East/Northeast
Visibility: 9000 m
Scattered clouds at a height of 1500 ft
Probability 40% :
Temporary
from 23 at 15 UTC to 23 at 24 UTC
Broken clouds at a height of 1500 ft
Probability 30% :
Temporary
from 23 at 22 UTC to 23 at 24 UTC
Broken clouds at a height of 800 ft

TAF: LFRC 231400Z 2315/2324 06010KT 9000 SCT015 PROB40 TEMPO 2315/2324 BKN015 PROB30 TEMPO 2322/2324 BKN008

Weather observations and forecasts of more than 4000 airports (METAR and TAF reports).

The available stations are represented by yellow and red dots on the map.

Hover mouse over dot to see the name of the station.

Then click to see weather observations and forecasts.

To change the map : click on the green buttons with a black cross to zoom in, on the green button with a dash to zoom out, or on the green arrows for adjacent maps.


METAR-TAF: